P&o Nedlloyd Pantanal — DDIZ — position and weather

sailwx.info

Track history (hours):
 
Tides and Currents Weather Stations Pressure Air Temp Water Temp Dewpoint Dewpoint Depression Visibility Wind Speed Wind Dir Waves Ship Positions

P&o Nedlloyd Pantanal

Last reported at 2014-Sep-11 17:31 UTC. Time now 2014-Oct-31 18:42 UTC.
Position N 25°09' E 057°11'.
Warning: this ship's position is 50 days out of date.

Length 207 m; draft 10.9 m.

Type: Ship (hazmat cat A). MMSI: 218646000.

Date/timePositionNaut miles runAvg speedWind from/ knotsBaromVisibWave heightAir tempDewpointWater temp
2014-Sep-11 17:31N 25°09' E 057°11'1010.6
2014-Sep-11 16:33N 25°03' E 057°20'2411.5
2014-Sep-11 14:27N 24°49' E 057°42'2211.5
2014-Sep-11 12:32N 24°35' E 058°00'1111.3
2014-Sep-11 11:33N 24°28' E 058°10'1111.0
2014-Sep-11 10:33N 24°21' E 058°19'1111.0
2014-Sep-11 09:33N 24°14' E 058°28'7010.9
2014-Sep-11 03:12N 23°23' E 059°21'710.8
2014-Sep-11 02:33N 23°18' E 059°25'1210.7
2014-Sep-11 01:25N 23°09' E 059°34'  
Track history (hours):
 
Tides and Currents Weather Stations Pressure Air Temp Water Temp Dewpoint Dewpoint Depression Visibility Wind Speed Wind Dir Waves Ship Positions

P&o Nedlloyd Pantanal

Last reported at 2014-Sep-11 17:31 UTC. Time now 2014-Oct-31 18:42 UTC.
Position N 25°09' E 057°11'.
Warning: this ship's position is 50 days out of date.

Length 207 m; draft 10.9 m.

Type: Ship (hazmat cat A). MMSI: 218646000.

Date/timePositionNaut miles runAvg speedWind from/ knotsBaromVisibWave heightAir tempDewpointWater temp
2014-Sep-11 17:31N 25°09' E 057°11'1010.6
2014-Sep-11 16:33N 25°03' E 057°20'2411.5
2014-Sep-11 14:27N 24°49' E 057°42'2211.5
2014-Sep-11 12:32N 24°35' E 058°00'1111.3
2014-Sep-11 11:33N 24°28' E 058°10'1111.0
2014-Sep-11 10:33N 24°21' E 058°19'1111.0
2014-Sep-11 09:33N 24°14' E 058°28'7010.9
2014-Sep-11 03:12N 23°23' E 059°21'710.8
2014-Sep-11 02:33N 23°18' E 059°25'1210.7
2014-Sep-11 01:25N 23°09' E 059°34'  

Dump ship's entire track history